Time;durP1;ratioP1;P1;durP2;ratioP2;P2;SDS_P1;SDS_P2;PMS_P1;PMS_P2;Temp;Humidity;BMP_temperature;BMP_pressure;BME280_temperature;BME280_humidity;BME280_pressure;Samples;Min_cycle;Max_cycle;Signal;HPM_P1;HPM_P2
2022/09/12 00:02:24;;;;;;;;;;;15.80;99.90;;;;;;5130259;27;19939;-71
2022/09/12 00:04:49;;;;;;;;;;;15.70;99.90;;;;;;5130163;27;19992;-71
2022/09/12 00:07:15;;;;;;;;;;;15.70;99.90;;;;;;5129622;27;19949;-71
2022/09/12 00:09:41;;;;;;;;;;;15.70;99.90;;;;;;5130925;28;20377;-71
2022/09/12 00:12:06;;;;;;;;;;;15.70;99.90;;;;;;5128859;28;19934;-71
2022/09/12 00:14:32;;;;;;;;;;;15.60;99.90;;;;;;5130338;27;20526;-71
2022/09/12 00:16:58;;;;;;;;;;;15.60;99.90;;;;;;5116547;27;19928;-72
2022/09/12 00:19:24;;;;;;;;;;;15.60;99.90;;;;;;5130825;27;19923;-72
2022/09/12 00:21:50;;;;;;;;;;;15.60;99.90;;;;;;5115972;27;20412;-71
2022/09/12 00:24:15;;;;;;;;;;;15.50;99.90;;;;;;5121814;28;19928;-71
2022/09/12 00:26:41;;;;;;;;;;;15.50;99.90;;;;;;5123080;28;20309;-71
2022/09/12 00:29:06;;;;;;;;;;;15.50;99.90;;;;;;5101072;28;20003;-71
2022/09/12 00:31:32;;;;;;;;;;;15.50;99.90;;;;;;5129980;27;20385;-71
2022/09/12 00:34:00;;;;;;;;;;;15.40;99.90;;;;;;5130458;28;19927;-71
2022/09/12 00:36:26;;;;;;;;;;;15.40;99.90;;;;;;5115935;28;19976;-71
2022/09/12 00:38:53;;;;;;;;;;;15.40;99.90;;;;;;5129058;28;20373;-71
2022/09/12 00:41:18;;;;;;;;;;;15.30;99.90;;;;;;5116597;27;20397;-71
2022/09/12 00:43:45;;;;;;;;;;;15.30;99.90;;;;;;5130531;28;19981;-71
2022/09/12 00:46:23;;;;;;;;;;;15.20;99.90;;;;;;5132857;27;19924;-72
2022/09/12 00:48:52;;;;;;;;;;;15.20;99.90;;;;;;5122926;27;19935;-72
2022/09/12 00:51:18;;;;;;;;;;;15.20;99.90;;;;;;5119040;27;20389;-71
2022/09/12 00:53:45;;;;;;;;;;;15.20;99.90;;;;;;5122347;27;19924;-72
2022/09/12 00:56:14;;;;;;;;;;;15.10;99.90;;;;;;5127157;27;20406;-71
2022/09/12 00:58:42;;;;;;;;;;;15.10;99.90;;;;;;5113978;27;19977;-71
2022/09/12 01:01:08;;;;;;;;;;;15.10;99.90;;;;;;5119960;27;20042;-71
2022/09/12 01:03:33;;;;;;;;;;;15.10;99.90;;;;;;5133960;27;20022;-72
2022/09/12 01:06:16;;;;;;;;;;;15.00;99.90;;;;;;5120362;27;19982;-71
2022/09/12 01:08:43;;;;;;;;;;;15.00;99.90;;;;;;5118201;27;19989;-71
2022/09/12 01:11:09;;;;;;;;;;;15.00;99.90;;;;;;5122084;27;19938;-71
2022/09/12 01:13:34;;;;;;;;;;;14.90;99.90;;;;;;5133730;27;19927;-71
2022/09/12 01:16:02;;;;;;;;;;;14.90;99.90;;;;;;5134072;27;20060;-72
2022/09/12 01:18:31;;;;;;;;;;;14.90;99.90;;;;;;5133306;27;19923;-71
2022/09/12 01:21:06;;;;;;;;;;;14.90;99.90;;;;;;5133372;27;20295;-71
2022/09/12 01:24:02;;;;;;;;;;;14.90;99.90;;;;;;5133420;27;19931;-71
2022/09/12 01:26:46;;;;;;;;;;;14.90;99.90;;;;;;5120029;27;19927;-71
2022/09/12 01:29:14;;;;;;;;;;;14.90;99.90;;;;;;5131816;27;19984;-71
2022/09/12 01:31:47;;;;;;;;;;;14.80;99.90;;;;;;5132316;27;19927;-72
2022/09/12 01:34:16;;;;;;;;;;;14.80;99.90;;;;;;5132847;27;19978;-71
2022/09/12 01:36:48;;;;;;;;;;;14.80;99.90;;;;;;5133286;27;19934;-71
2022/09/12 01:39:19;;;;;;;;;;;14.80;99.90;;;;;;5133583;27;19950;-71
2022/09/12 01:41:53;;;;;;;;;;;14.70;99.90;;;;;;5124134;27;19995;-71
2022/09/12 01:44:28;;;;;;;;;;;14.70;99.90;;;;;;5131769;27;19934;-71
2022/09/12 01:46:58;;;;;;;;;;;14.70;99.90;;;;;;5132677;27;19923;-72
2022/09/12 01:49:23;;;;;;;;;;;14.70;99.90;;;;;;5128509;27;19968;-71
2022/09/12 01:52:03;;;;;;;;;;;14.60;99.90;;;;;;5128757;27;19923;-71
2022/09/12 01:54:39;;;;;;;;;;;14.60;99.90;;;;;;5132738;27;20022;-71
2022/09/12 01:57:09;;;;;;;;;;;14.50;99.90;;;;;;5130347;27;19930;-71
2022/09/12 01:59:37;;;;;;;;;;;14.50;99.90;;;;;;5128441;27;19966;-71
2022/09/12 02:02:09;;;;;;;;;;;14.50;99.90;;;;;;5132451;27;20301;-71
2022/09/12 02:04:40;;;;;;;;;;;14.50;99.90;;;;;;5133080;27;19924;-71
2022/09/12 02:07:09;;;;;;;;;;;14.50;99.90;;;;;;5101368;27;19968;-71
2022/09/12 02:09:36;;;;;;;;;;;14.50;99.90;;;;;;5114698;27;20043;-71
2022/09/12 02:12:03;;;;;;;;;;;14.50;99.90;;;;;;5132383;27;19923;-71
2022/09/12 02:14:41;;;;;;;;;;;14.50;99.90;;;;;;5119382;27;20317;-71
2022/09/12 02:17:12;;;;;;;;;;;14.50;99.90;;;;;;5124870;27;19923;-71
2022/09/12 02:19:41;;;;;;;;;;;14.40;99.90;;;;;;5119436;27;20270;-71
2022/09/12 02:22:08;;;;;;;;;;;14.40;99.90;;;;;;5116355;27;19927;-71
2022/09/12 02:24:38;;;;;;;;;;;14.40;99.90;;;;;;5121746;27;19971;-71
2022/09/12 02:27:06;;;;;;;;;;;14.40;99.90;;;;;;5132354;27;19999;-71
2022/09/12 02:29:32;;;;;;;;;;;14.30;99.90;;;;;;5131666;27;19924;-71
2022/09/12 02:32:04;;;;;;;;;;;14.40;99.90;;;;;;5132416;27;19931;-71
2022/09/12 02:34:43;;;;;;;;;;;14.40;99.90;;;;;;5118259;27;19924;-71
2022/09/12 02:37:17;;;;;;;;;;;14.40;99.90;;;;;;5132325;27;20056;-71
2022/09/12 02:39:43;;;;;;;;;;;14.40;99.90;;;;;;5131332;27;19923;-71
2022/09/12 02:42:08;;;;;;;;;;;14.30;99.90;;;;;;5132216;27;20724;-71
2022/09/12 02:44:35;;;;;;;;;;;14.30;99.90;;;;;;5127403;27;20420;-71
2022/09/12 02:47:09;;;;;;;;;;;14.30;99.90;;;;;;5121656;27;19923;-71
2022/09/12 02:49:35;;;;;;;;;;;14.30;99.90;;;;;;5126449;27;19928;-71
2022/09/12 02:52:01;;;;;;;;;;;14.30;99.90;;;;;;5111585;27;19931;-72
2022/09/12 02:54:27;;;;;;;;;;;14.30;99.90;;;;;;5121479;27;20300;-71
2022/09/12 02:56:52;;;;;;;;;;;14.20;99.90;;;;;;5131073;27;19924;-71
2022/09/12 02:59:20;;;;;;;;;;;14.20;99.90;;;;;;5128134;27;19927;-71
2022/09/12 03:01:45;;;;;;;;;;;14.20;99.90;;;;;;5131933;27;19971;-72
2022/09/12 03:04:25;;;;;;;;;;;14.20;99.90;;;;;;5131606;27;19967;-71
2022/09/12 03:06:51;;;;;;;;;;;14.20;99.90;;;;;;5127572;27;19969;-71
2022/09/12 03:09:25;;;;;;;;;;;14.20;99.90;;;;;;5121584;27;19927;-71
2022/09/12 03:12:10;;;;;;;;;;;14.20;99.90;;;;;;5129801;27;20404;-71
2022/09/12 03:14:39;;;;;;;;;;;14.20;99.90;;;;;;5111153;27;20040;-71
2022/09/12 03:17:07;;;;;;;;;;;14.10;99.90;;;;;;5124391;27;19924;-71
2022/09/12 03:19:39;;;;;;;;;;;14.10;99.90;;;;;;5110420;28;19928;-71
2022/09/12 03:22:07;;;;;;;;;;;14.00;99.90;;;;;;5116519;27;20342;-71
2022/09/12 03:24:37;;;;;;;;;;;14.10;99.90;;;;;;5131340;27;19923;-72
2022/09/12 03:27:09;;;;;;;;;;;14.00;99.90;;;;;;5123917;27;19964;-72
2022/09/12 03:29:36;;;;;;;;;;;14.00;99.90;;;;;;5116846;27;20064;-71
2022/09/12 03:32:01;;;;;;;;;;;14.00;99.90;;;;;;5115837;27;19977;-72
2022/09/12 03:34:27;;;;;;;;;;;14.00;99.90;;;;;;5116846;27;20334;-71
2022/09/12 03:36:56;;;;;;;;;;;14.00;99.90;;;;;;5130847;27;20290;-71
2022/09/12 03:39:23;;;;;;;;;;;13.90;99.90;;;;;;5130872;27;19923;-71
2022/09/12 03:41:49;;;;;;;;;;;13.90;99.90;;;;;;5112948;27;19927;-71
2022/09/12 03:44:15;;;;;;;;;;;13.80;99.90;;;;;;5130497;27;19927;-71
2022/09/12 03:46:40;;;;;;;;;;;13.80;99.90;;;;;;5130467;27;19927;-71
2022/09/12 03:49:06;;;;;;;;;;;13.80;99.90;;;;;;5123913;27;19927;-71
2022/09/12 03:51:31;;;;;;;;;;;13.80;99.90;;;;;;5124426;27;19930;-71
2022/09/12 03:53:57;;;;;;;;;;;13.80;99.90;;;;;;5130960;27;19966;-71
2022/09/12 03:56:22;;;;;;;;;;;13.80;99.90;;;;;;5130814;27;20301;-71
2022/09/12 03:58:48;;;;;;;;;;;13.80;99.90;;;;;;5123918;27;19986;-71
2022/09/12 04:01:15;;;;;;;;;;;13.80;99.90;;;;;;5130749;27;19934;-71
2022/09/12 04:03:41;;;;;;;;;;;13.80;99.90;;;;;;5130579;27;19931;-72
2022/09/12 04:06:08;;;;;;;;;;;13.80;99.90;;;;;;5130427;27;20040;-72
2022/09/12 04:08:34;;;;;;;;;;;13.70;99.90;;;;;;5130972;27;19924;-71
2022/09/12 04:11:06;;;;;;;;;;;13.70;99.90;;;;;;5128989;27;20381;-71
2022/09/12 04:13:33;;;;;;;;;;;13.70;99.90;;;;;;5129568;27;20458;-71
2022/09/12 04:15:59;;;;;;;;;;;13.70;99.90;;;;;;5130398;28;19927;-71
2022/09/12 04:18:25;;;;;;;;;;;13.70;99.90;;;;;;5130828;27;20267;-71
2022/09/12 04:20:50;;;;;;;;;;;13.70;99.90;;;;;;5132063;27;19934;-71
2022/09/12 04:23:16;;;;;;;;;;;13.70;99.90;;;;;;5134705;27;19927;-71
2022/09/12 04:25:42;;;;;;;;;;;13.70;99.90;;;;;;5134939;27;19924;-71
2022/09/12 04:28:07;;;;;;;;;;;13.70;99.90;;;;;;5134820;27;19931;-71
2022/09/12 04:30:33;;;;;;;;;;;13.70;99.90;;;;;;5131412;27;19979;-71
2022/09/12 04:32:58;;;;;;;;;;;13.70;99.90;;;;;;5124100;27;20301;-71
2022/09/12 04:35:24;;;;;;;;;;;13.70;99.90;;;;;;5134276;27;20575;-71
2022/09/12 04:37:49;;;;;;;;;;;13.60;99.90;;;;;;5121271;27;19940;-71
2022/09/12 04:40:15;;;;;;;;;;;13.60;99.90;;;;;;5125247;27;19931;-71
2022/09/12 04:42:41;;;;;;;;;;;13.60;99.90;;;;;;5129522;27;19931;-71
2022/09/12 04:45:06;;;;;;;;;;;13.60;99.90;;;;;;5134331;27;19923;-71
2022/09/12 04:47:32;;;;;;;;;;;13.60;99.90;;;;;;5134046;27;19936;-71
2022/09/12 04:49:57;;;;;;;;;;;13.60;99.90;;;;;;5134544;27;20353;-71
2022/09/12 04:52:23;;;;;;;;;;;13.60;99.90;;;;;;5120046;27;19930;-71
2022/09/12 04:54:49;;;;;;;;;;;13.60;99.90;;;;;;5126874;27;20016;-71
2022/09/12 04:57:15;;;;;;;;;;;13.60;99.90;;;;;;5096655;27;19924;-71
2022/09/12 04:59:40;;;;;;;;;;;13.60;99.90;;;;;;5113772;28;19984;-71
2022/09/12 05:02:06;;;;;;;;;;;13.60;99.90;;;;;;5126813;27;19985;-71
2022/09/12 05:04:31;;;;;;;;;;;13.60;99.90;;;;;;5113314;27;19930;-71
2022/09/12 05:06:57;;;;;;;;;;;13.60;99.90;;;;;;5116090;27;20385;-72
2022/09/12 05:09:23;;;;;;;;;;;13.60;99.90;;;;;;5134065;27;19963;-71
2022/09/12 05:11:48;;;;;;;;;;;13.70;99.90;;;;;;5132478;27;19927;-71
2022/09/12 05:14:14;;;;;;;;;;;13.70;99.90;;;;;;5113273;27;19930;-71
2022/09/12 05:16:40;;;;;;;;;;;13.70;99.90;;;;;;5128569;27;20023;-72
2022/09/12 05:19:05;;;;;;;;;;;13.80;99.90;;;;;;5120604;27;20003;-71
2022/09/12 05:21:31;;;;;;;;;;;13.90;99.90;;;;;;5113115;27;19924;-71
2022/09/12 05:23:58;;;;;;;;;;;13.90;99.90;;;;;;5121177;27;19923;-71
2022/09/12 05:26:24;;;;;;;;;;;14.00;99.90;;;;;;5131859;27;19946;-71
2022/09/12 05:28:50;;;;;;;;;;;14.00;99.90;;;;;;5095450;28;19924;-71
2022/09/12 05:31:17;;;;;;;;;;;14.10;99.90;;;;;;5113202;28;19931;-71
2022/09/12 05:33:44;;;;;;;;;;;14.20;99.90;;;;;;5132454;27;19927;-71
2022/09/12 05:36:11;;;;;;;;;;;14.30;99.90;;;;;;5131884;27;19923;-71
2022/09/12 05:38:37;;;;;;;;;;;14.30;99.90;;;;;;5121805;27;19974;-71
2022/09/12 05:41:11;;;;;;;;;;;14.40;99.90;;;;;;5117776;27;19930;-71
2022/09/12 05:43:37;;;;;;;;;;;14.40;99.90;;;;;;5122264;27;19934;-71
2022/09/12 05:46:07;;;;;;;;;;;14.50;99.90;;;;;;5129306;27;20363;-72
2022/09/12 05:48:34;;;;;;;;;;;14.50;99.90;;;;;;5120694;27;20290;-71
2022/09/12 05:51:00;;;;;;;;;;;14.60;99.90;;;;;;5129481;27;20400;-72
2022/09/12 05:53:27;;;;;;;;;;;14.60;99.90;;;;;;5111663;27;20014;-71
2022/09/12 05:56:09;;;;;;;;;;;14.70;99.90;;;;;;5116340;27;20006;-71
2022/09/12 05:58:36;;;;;;;;;;;14.70;99.90;;;;;;5130300;27;19931;-71
2022/09/12 06:01:02;;;;;;;;;;;14.70;99.90;;;;;;5132333;27;20432;-71
2022/09/12 06:03:28;;;;;;;;;;;14.70;99.90;;;;;;5132965;27;20042;-71
2022/09/12 06:05:53;;;;;;;;;;;14.80;99.90;;;;;;5130661;27;20022;-71
2022/09/12 06:08:19;;;;;;;;;;;14.80;99.90;;;;;;5132168;27;20010;-71
2022/09/12 06:10:44;;;;;;;;;;;14.80;99.90;;;;;;5132398;27;19928;-71
2022/09/12 06:13:10;;;;;;;;;;;14.80;99.90;;;;;;5132730;27;19932;-71
2022/09/12 06:15:36;;;;;;;;;;;14.90;99.90;;;;;;5132716;27;19923;-71
2022/09/12 06:18:02;;;;;;;;;;;14.90;99.90;;;;;;5131839;27;19931;-71
2022/09/12 06:20:27;;;;;;;;;;;15.00;99.90;;;;;;5132186;27;20276;-72
2022/09/12 06:22:53;;;;;;;;;;;15.00;99.90;;;;;;5116596;27;19955;-71
2022/09/12 06:25:18;;;;;;;;;;;15.00;99.90;;;;;;5131817;27;19930;-71
2022/09/12 06:27:46;;;;;;;;;;;15.00;99.90;;;;;;5131702;27;19923;-71
2022/09/12 06:30:12;;;;;;;;;;;15.10;99.90;;;;;;5131543;27;20025;-71
2022/09/12 06:32:37;;;;;;;;;;;15.10;99.90;;;;;;5131282;27;20373;-71
2022/09/12 06:35:04;;;;;;;;;;;15.20;99.90;;;;;;5132093;27;20572;-71
2022/09/12 06:37:29;;;;;;;;;;;15.20;99.90;;;;;;5130942;27;19938;-72
2022/09/12 06:39:55;;;;;;;;;;;15.30;99.90;;;;;;5131886;27;20393;-71
2022/09/12 06:42:21;;;;;;;;;;;15.30;99.90;;;;;;5131960;27;20306;-71
2022/09/12 06:44:47;;;;;;;;;;;15.40;99.90;;;;;;5129772;27;20359;-71
2022/09/12 06:47:13;;;;;;;;;;;15.40;99.90;;;;;;5131854;27;19924;-71
2022/09/12 06:49:38;;;;;;;;;;;15.50;99.90;;;;;;5131256;27;19930;-71
2022/09/12 06:52:04;;;;;;;;;;;15.50;99.90;;;;;;5131877;27;19923;-72
2022/09/12 06:54:29;;;;;;;;;;;15.60;99.90;;;;;;5129877;27;19931;-72
2022/09/12 06:56:55;;;;;;;;;;;15.60;99.90;;;;;;5120923;27;19924;-71
2022/09/12 06:59:21;;;;;;;;;;;15.60;99.90;;;;;;5131309;27;19928;-72
2022/09/12 07:01:47;;;;;;;;;;;15.70;99.90;;;;;;5123859;27;19984;-72
2022/09/12 07:04:12;;;;;;;;;;;15.70;99.90;;;;;;5129773;27;20377;-72
2022/09/12 07:06:39;;;;;;;;;;;15.70;99.90;;;;;;5128345;27;20053;-72
2022/09/12 07:09:05;;;;;;;;;;;15.80;99.90;;;;;;5131929;27;20005;-72
2022/09/12 07:11:32;;;;;;;;;;;15.80;99.90;;;;;;5134889;27;19931;-72
2022/09/12 07:13:58;;;;;;;;;;;15.90;99.90;;;;;;5125097;27;20385;-72
2022/09/12 07:16:24;;;;;;;;;;;15.90;99.90;;;;;;5136372;27;19924;-71
2022/09/12 07:18:50;;;;;;;;;;;15.90;99.90;;;;;;5145707;27;19931;-71
2022/09/12 07:21:16;;;;;;;;;;;16.00;99.90;;;;;;5133256;27;19931;-72
2022/09/12 07:23:42;;;;;;;;;;;16.00;99.90;;;;;;5130885;27;19923;-72
2022/09/12 07:26:12;;;;;;;;;;;16.00;99.90;;;;;;5124976;27;19927;-71
2022/09/12 07:28:37;;;;;;;;;;;16.10;99.90;;;;;;5131482;27;19924;-72
2022/09/12 07:31:05;;;;;;;;;;;16.10;99.90;;;;;;5113640;27;20278;-72
2022/09/12 07:33:30;;;;;;;;;;;16.20;99.90;;;;;;5097008;27;19927;-72
2022/09/12 07:35:59;;;;;;;;;;;16.30;99.90;;;;;;5120527;27;20060;-71
2022/09/12 07:38:25;;;;;;;;;;;16.40;99.90;;;;;;5131265;27;19931;-72
2022/09/12 07:40:50;;;;;;;;;;;16.40;99.90;;;;;;5131905;27;20576;-72
2022/09/12 07:43:16;;;;;;;;;;;16.50;99.90;;;;;;5130732;27;19923;-72
2022/09/12 07:45:42;;;;;;;;;;;16.60;99.90;;;;;;5121118;27;19930;-72
2022/09/12 07:48:08;;;;;;;;;;;16.70;99.90;;;;;;5111111;27;20011;-72
2022/09/12 07:50:33;;;;;;;;;;;16.80;99.90;;;;;;5123515;27;19923;-72
2022/09/12 07:52:59;;;;;;;;;;;16.80;99.90;;;;;;5146649;27;19938;-72
2022/09/12 07:55:24;;;;;;;;;;;16.90;99.90;;;;;;5143028;27;19930;-73
2022/09/12 07:57:50;;;;;;;;;;;17.00;99.90;;;;;;5135958;27;20011;-72
2022/09/12 08:00:17;;;;;;;;;;;17.10;99.90;;;;;;5128309;27;19924;-72
2022/09/12 08:02:42;;;;;;;;;;;17.10;99.90;;;;;;5146468;27;19927;-72
2022/09/12 08:05:08;;;;;;;;;;;17.20;99.90;;;;;;5145509;27;19949;-71
2022/09/12 08:07:34;;;;;;;;;;;17.20;99.90;;;;;;5101038;28;19927;-71
2022/09/12 08:09:59;;;;;;;;;;;17.30;99.90;;;;;;5131417;27;19945;-72
2022/09/12 08:12:26;;;;;;;;;;;17.30;99.90;;;;;;5117463;27;20611;-72
2022/09/12 08:14:52;;;;;;;;;;;17.40;99.90;;;;;;5122061;28;19924;-71
2022/09/12 08:17:18;;;;;;;;;;;17.30;99.90;;;;;;5124015;28;19927;-72
2022/09/12 08:19:43;;;;;;;;;;;17.30;99.90;;;;;;5119183;28;19987;-72
2022/09/12 08:22:10;;;;;;;;;;;17.40;99.90;;;;;;5130283;28;19930;-72
2022/09/12 08:24:35;;;;;;;;;;;17.40;99.90;;;;;;5130485;28;19931;-71
2022/09/12 08:27:01;;;;;;;;;;;17.50;99.90;;;;;;5103828;28;19924;-71
2022/09/12 08:29:26;;;;;;;;;;;17.50;99.90;;;;;;5121950;27;19982;-72
2022/09/12 08:31:52;;;;;;;;;;;17.60;99.90;;;;;;5110691;28;19931;-72
2022/09/12 08:34:18;;;;;;;;;;;17.70;99.90;;;;;;5110123;28;20294;-71
2022/09/12 08:36:43;;;;;;;;;;;17.90;99.90;;;;;;5125513;28;19927;-72
2022/09/12 08:39:13;;;;;;;;;;;18.00;99.90;;;;;;5121835;28;20598;-72
2022/09/12 08:41:53;;;;;;;;;;;18.10;99.90;;;;;;5112624;28;19924;-72
2022/09/12 08:44:18;;;;;;;;;;;18.20;99.90;;;;;;5111925;28;19923;-72
2022/09/12 08:46:50;;;;;;;;;;;18.30;99.90;;;;;;5125619;28;19931;-72
2022/09/12 08:49:39;;;;;;;;;;;18.30;99.90;;;;;;5129870;28;19923;-71
2022/09/12 08:52:08;;;;;;;;;;;18.40;99.90;;;;;;5091629;27;19923;-71
2022/09/12 08:54:34;;;;;;;;;;;18.40;99.90;;;;;;5128640;27;20377;-71
2022/09/12 08:57:03;;;;;;;;;;;18.50;99.90;;;;;;5118067;28;20068;-72
2022/09/12 08:59:37;;;;;;;;;;;18.50;99.90;;;;;;5130054;27;19927;-72
2022/09/12 09:02:04;;;;;;;;;;;18.60;99.90;;;;;;5130365;28;19924;-72
2022/09/12 09:04:44;;;;;;;;;;;18.70;99.90;;;;;;5116578;27;19927;-72
2022/09/12 09:07:16;;;;;;;;;;;18.80;99.90;;;;;;5132508;27;19930;-72
2022/09/12 09:09:54;;;;;;;;;;;18.80;99.90;;;;;;5122424;27;20409;-71
2022/09/12 09:12:25;;;;;;;;;;;18.90;99.90;;;;;;5121085;27;20364;-72
2022/09/12 09:15:13;;;;;;;;;;;19.00;99.90;;;;;;5120710;27;19931;-72
2022/09/12 09:17:41;;;;;;;;;;;19.10;99.90;;;;;;5115040;27;19923;-72
2022/09/12 09:20:15;;;;;;;;;;;19.10;99.90;;;;;;5124923;27;19924;-72
2022/09/12 09:22:46;;;;;;;;;;;19.20;99.90;;;;;;5113635;28;20394;-72
2022/09/12 09:25:19;;;;;;;;;;;19.30;99.90;;;;;;5105385;27;19923;-72
2022/09/12 09:27:50;;;;;;;;;;;19.30;99.90;;;;;;5121016;27;20511;-72
2022/09/12 09:30:17;;;;;;;;;;;19.40;99.90;;;;;;5117542;27;19967;-73
2022/09/12 09:32:44;;;;;;;;;;;19.40;99.90;;;;;;5122889;27;19930;-71
2022/09/12 09:35:15;;;;;;;;;;;19.40;99.90;;;;;;5129915;27;19983;-71
2022/09/12 09:37:42;;;;;;;;;;;19.50;99.90;;;;;;5113039;27;19924;-72
2022/09/12 09:40:16;;;;;;;;;;;19.60;99.90;;;;;;5130008;27;20443;-72
2022/09/12 09:42:56;;;;;;;;;;;19.60;99.90;;;;;;5121689;27;19947;-72
2022/09/12 09:45:23;;;;;;;;;;;19.80;99.90;;;;;;5119977;27;19939;-72
2022/09/12 09:47:56;;;;;;;;;;;19.90;99.90;;;;;;5100812;27;19932;-71
2022/09/12 09:50:21;;;;;;;;;;;20.20;99.90;;;;;;5119869;27;20381;-71
2022/09/12 09:52:48;;;;;;;;;;;20.30;99.90;;;;;;5132536;27;20023;-71
2022/09/12 09:55:17;;;;;;;;;;;20.60;99.90;;;;;;5106677;27;20378;-70
2022/09/12 09:57:45;;;;;;;;;;;21.00;99.90;;;;;;5113574;27;19924;-72
2022/09/12 10:00:30;;;;;;;;;;;21.70;99.90;;;;;;5121948;27;20381;-70
2022/09/12 10:03:15;;;;;;;;;;;22.30;99.90;;;;;;5127846;27;20347;-70
2022/09/12 10:05:45;;;;;;;;;;;23.10;99.90;;;;;;5114840;27;19927;-71
2022/09/12 10:08:19;;;;;;;;;;;23.80;99.90;;;;;;5133028;27;19930;-71
2022/09/12 10:10:54;;;;;;;;;;;24.20;98.40;;;;;;5130292;27;19923;-70
2022/09/12 10:13:25;;;;;;;;;;;24.50;98.60;;;;;;5123382;27;19935;-70
2022/09/12 10:15:55;;;;;;;;;;;24.90;97.50;;;;;;5114211;27;19967;-70
2022/09/12 10:18:32;;;;;;;;;;;25.50;97.00;;;;;;5119241;27;19992;-70
2022/09/12 10:20:58;;;;;;;;;;;26.00;95.70;;;;;;5112404;28;20010;-70
2022/09/12 10:23:36;;;;;;;;;;;26.30;94.70;;;;;;5111557;28;20022;-70
2022/09/12 10:26:07;;;;;;;;;;;26.60;94.80;;;;;;5121943;27;19923;-70
2022/09/12 10:28:36;;;;;;;;;;;27.00;93.70;;;;;;5132075;27;19924;-70
2022/09/12 10:31:02;;;;;;;;;;;27.30;93.50;;;;;;5121732;27;19924;-70
2022/09/12 10:33:28;;;;;;;;;;;27.60;93.10;;;;;;5131960;27;19927;-70
2022/09/12 10:35:54;;;;;;;;;;;27.80;92.80;;;;;;5131296;27;19972;-70
2022/09/12 10:38:25;;;;;;;;;;;28.10;90.80;;;;;;5132222;27;20628;-70
2022/09/12 10:40:56;;;;;;;;;;;28.30;91.00;;;;;;5124145;27;19924;-70
2022/09/12 10:43:26;;;;;;;;;;;28.40;90.10;;;;;;5111535;28;19924;-71
2022/09/12 10:45:56;;;;;;;;;;;28.50;91.00;;;;;;5120696;27;19983;-71
2022/09/12 10:48:21;;;;;;;;;;;28.60;89.60;;;;;;5118446;27;19938;-70
2022/09/12 10:50:47;;;;;;;;;;;28.60;89.50;;;;;;5116034;27;19931;-70
2022/09/12 10:53:16;;;;;;;;;;;28.60;89.70;;;;;;5120914;27;19978;-72
2022/09/12 10:55:50;;;;;;;;;;;28.90;88.80;;;;;;5114749;27;20317;-70
2022/09/12 10:58:25;;;;;;;;;;;29.20;89.30;;;;;;5122529;27;20664;-71
2022/09/12 11:00:54;;;;;;;;;;;29.40;86.20;;;;;;5111660;27;20012;-72
2022/09/12 11:03:37;;;;;;;;;;;29.50;85.60;;;;;;5123007;27;19923;-70
2022/09/12 11:06:03;;;;;;;;;;;29.60;84.20;;;;;;5119189;27;19945;-71
2022/09/12 11:08:49;;;;;;;;;;;29.60;83.30;;;;;;5130731;27;19935;-71
2022/09/12 11:11:18;;;;;;;;;;;29.80;83.70;;;;;;5118877;27;19928;-71
2022/09/12 11:13:43;;;;;;;;;;;30.20;83.20;;;;;;5126785;27;19931;-71
2022/09/12 11:16:11;;;;;;;;;;;30.40;80.20;;;;;;5131091;27;20309;-71
2022/09/12 11:18:56;;;;;;;;;;;30.60;81.60;;;;;;5131488;27;19923;-70
2022/09/12 11:21:32;;;;;;;;;;;30.90;81.20;;;;;;5129490;27;20051;-71
2022/09/12 11:24:30;;;;;;;;;;;31.10;79.90;;;;;;5113022;27;20424;-72
2022/09/12 11:27:11;;;;;;;;;;;31.10;76.60;;;;;;5095191;27;20444;-71
2022/09/12 11:29:46;;;;;;;;;;;31.00;76.80;;;;;;5130876;27;19924;-71
2022/09/12 11:32:14;;;;;;;;;;;30.70;78.80;;;;;;5130992;27;19976;-71
2022/09/12 11:34:43;;;;;;;;;;;30.90;77.80;;;;;;5131091;27;19931;-71
2022/09/12 11:37:11;;;;;;;;;;;30.60;74.80;;;;;;5130845;27;19980;-70
2022/09/12 11:39:42;;;;;;;;;;;30.50;77.40;;;;;;5128276;27;20289;-71
2022/09/12 11:42:37;;;;;;;;;;;30.50;76.30;;;;;;5130954;27;19997;-71
2022/09/12 11:45:06;;;;;;;;;;;30.60;74.80;;;;;;5113236;27;19931;-71
2022/09/12 11:47:34;;;;;;;;;;;30.90;75.30;;;;;;5129862;27;20457;-70
2022/09/12 11:50:02;;;;;;;;;;;31.00;74.10;;;;;;5128835;27;19924;-70
2022/09/12 11:52:31;;;;;;;;;;;31.00;72.80;;;;;;5130423;27;19975;-71
2022/09/12 11:55:07;;;;;;;12.90;7.65;;;31.00;73.60;;;;;;5130682;27;19924;-71
2022/09/12 11:57:38;;;;;;;;;;;31.30;72.10;;;;;;5129809;27;20536;-72
2022/09/12 12:00:30;;;;;;;;;;;31.50;72.50;;;;;;5131043;27;19926;-70
2022/09/12 12:03:05;;;;;;;;;;;31.80;70.60;;;;;;5088235;27;19969;-71
2022/09/12 12:05:39;;;;;;;;;;;32.00;70.90;;;;;;5093370;28;20002;-71
2022/09/12 12:08:05;;;;;;;;;;;32.10;69.60;;;;;;5122806;27;20289;-71
2022/09/12 12:10:35;;;;;;;;;;;32.10;68.80;;;;;;5130875;27;19923;-71
2022/09/12 12:13:03;;;;;;;;;;;32.20;69.90;;;;;;5130188;28;19971;-72
2022/09/12 12:15:29;;;;;;;;;;;32.40;68.70;;;;;;5111257;28;20405;-71
2022/09/12 12:18:01;;;;;;;;;;;32.60;69.90;;;;;;5111057;28;19923;-71
2022/09/12 12:20:27;;;;;;;;;;;32.80;68.10;;;;;;5111344;28;19926;-70
2022/09/12 12:22:53;;;;;;;;;;;33.00;67.60;;;;;;5100185;28;20389;-71
2022/09/12 12:25:19;;;;;;;;;;;33.10;66.20;;;;;;5115903;27;20566;-70
2022/09/12 12:27:47;;;;;;;;;;;32.90;65.50;;;;;;5118064;28;19932;-71
2022/09/12 12:30:27;;;;;;;;;;;32.90;66.00;;;;;;5123705;28;19947;-71
2022/09/12 12:33:00;;;;;;;;;;;32.70;67.30;;;;;;5125190;28;19920;-70
2022/09/12 12:35:34;;;;;;;;;;;32.00;63.90;;;;;;5129960;27;19919;-71
2022/09/12 12:38:00;;;;;;;;;;;31.40;66.30;;;;;;5129719;28;19919;-71
2022/09/12 12:40:27;;;;;;;;;;;30.90;66.90;;;;;;5129870;27;20611;-71
2022/09/12 12:43:00;;;;;;;;;;;30.60;67.80;;;;;;5133413;27;19919;-71
2022/09/12 12:45:26;;;;;;;;;;;30.60;67.90;;;;;;5134207;27;19919;-71
2022/09/12 12:47:57;;;;;;;;;;;30.80;68.40;;;;;;5129156;27;19971;-71
2022/09/12 12:50:25;;;;;;;;;;;31.20;66.10;;;;;;5113931;28;19920;-71
2022/09/12 12:52:52;;;;;;;;;;;31.60;66.90;;;;;;5114054;27;19927;-71
2022/09/12 12:55:33;;;;;;;;;;;31.80;66.20;;;;;;5113945;27;20377;-71
2022/09/12 12:57:59;;;;;;;;;;;31.90;66.00;;;;;;5100840;28;19930;-71
2022/09/12 13:00:28;;;;;;;;;;;31.90;66.10;;;;;;5110231;27;19927;-70
2022/09/12 13:02:56;;;;;;;;;;;31.70;63.60;;;;;;5133809;27;20328;-70
2022/09/12 13:05:23;;;;;;;;;;;31.90;65.50;;;;;;5131705;27;19919;-71
2022/09/12 13:07:54;;;;;;;;;;;32.30;65.40;;;;;;5114356;27;19923;-72
2022/09/12 13:10:23;;;;;;;;;;;32.70;63.20;;;;;;5130149;27;19919;-70
2022/09/12 13:12:49;;;;;;;;;;;32.70;64.20;;;;;;5133158;27;19931;-70
2022/09/12 13:15:41;;;;;;;;;;;32.90;64.30;;;;;;5115299;27;19923;-71
2022/09/12 13:18:12;;;;;;;;;;;33.10;64.00;;;;;;5128306;27;19990;-70
2022/09/12 13:20:46;;;;;;;;;;;33.10;63.30;;;;;;5120637;27;19919;-71
2022/09/12 13:23:26;;;;;;;;;;;32.70;62.30;;;;;;5132017;27;19919;-70
2022/09/12 13:25:56;;;;;;;;;;;32.10;62.00;;;;;;5113609;27;19967;-71
2022/09/12 13:28:22;;;;;;;;;;;31.50;61.60;;;;;;5128768;27;20393;-71
2022/09/12 13:31:08;;;;;;;;;;;31.10;62.60;;;;;;5124563;27;19920;-71
2022/09/12 13:33:41;;;;;;;;;;;30.80;63.60;;;;;;5115291;27;20293;-70
2022/09/12 13:36:12;;;;;;;;;;;30.80;63.40;;;;;;5133680;27;19919;-70
2022/09/12 13:38:50;;;;;;;;;;;31.00;63.20;;;;;;5124574;27;19926;-71
2022/09/12 13:41:29;;;;;;;;;;;31.40;63.30;;;;;;5130414;27;20009;-71
2022/09/12 13:43:55;;;;;;;;;;;31.60;62.40;;;;;;5133251;27;19971;-71
2022/09/12 13:46:29;;;;;;;;;;;31.80;62.30;;;;;;5116747;27;19919;-71
2022/09/12 13:48:56;;;;;;;;;;;31.60;61.50;;;;;;5132581;27;19926;-70
2022/09/12 13:51:23;;;;;;;;;;;31.10;62.40;;;;;;5132497;27;19920;-70
2022/09/12 13:53:50;;;;;;;;;;;30.50;61.50;;;;;;5131614;27;20381;-70
2022/09/12 13:56:16;;;;;;;;;;;30.10;62.20;;;;;;5133170;27;19919;-70
2022/09/12 13:58:50;;;;;;;;;;;29.70;62.00;;;;;;5132863;27;19919;-70
2022/09/12 14:01:16;;;;;;;;;;;29.40;62.20;;;;;;5132861;27;19974;-70
2022/09/12 14:06:34;;;;;;;;;;;29.00;62.30;;;;;;5132682;27;20002;-71
2022/09/12 14:09:00;;;;;;;;;;;28.80;62.90;;;;;;5132351;27;20014;-70
2022/09/12 14:11:27;;;;;;;;;;;28.70;64.60;;;;;;5132431;27;19919;-70
2022/09/12 14:13:54;;;;;;;;;;;28.70;64.50;;;;;;5132084;27;19924;-71
2022/09/12 14:16:22;;;;;;;;;;;28.60;64.40;;;;;;5123903;27;19923;-71
2022/09/12 14:18:48;;;;;;;;;;;28.50;64.40;;;;;;5132671;27;19923;-70
2022/09/12 14:21:29;;;;;;;;;;;28.30;65.10;;;;;;5131045;27;19930;-70
2022/09/12 14:23:56;;;;;;;;;;;28.30;65.30;;;;;;5120766;27;19923;-70
2022/09/12 14:26:22;;;;;;;;;;;28.30;64.90;;;;;;5132074;27;20043;-71
2022/09/12 14:28:48;;;;;;;;;;;28.20;64.90;;;;;;5132138;27;20365;-70
2022/09/12 14:31:15;;;;;;;;;;;28.20;65.20;;;;;;5131967;27;19925;-70